Time;durP1;ratioP1;P1;durP2;ratioP2;P2;SDS_P1;SDS_P2;PMS_P1;PMS_P2;Temp;Humidity;BMP_temperature;BMP_pressure;BME280_temperature;BME280_humidity;BME280_pressure;Samples;Min_cycle;Max_cycle;Signal;HPM_P1;HPM_P2
2023/04/07 00:00:29;;;;;;;58.92;34.35;;;7.10;97.80;;;;;;5102112;27;20093;-78
2023/04/07 00:02:55;;;;;;;47.90;31.08;;;7.10;98.00;;;;;;5118593;27;20527;-78
2023/04/07 00:05:21;;;;;;;53.40;33.58;;;7.10;97.70;;;;;;5085127;27;20131;-80
2023/04/07 00:07:48;;;;;;;58.83;35.88;;;7.10;97.60;;;;;;5101702;27;20497;-79
2023/04/07 00:10:13;;;;;;;62.55;36.17;;;7.10;97.70;;;;;;5118546;27;20080;-80
2023/04/07 00:12:39;;;;;;;58.10;35.17;;;7.10;97.80;;;;;;5084598;27;20448;-79
2023/04/07 00:15:05;;;;;;;56.72;35.20;;;7.10;97.70;;;;;;5101435;27;20039;-80
2023/04/07 00:17:31;;;;;;;64.82;36.55;;;7.10;97.70;;;;;;5118659;27;20138;-80
2023/04/07 00:19:57;;;;;;;51.58;33.28;;;7.10;97.90;;;;;;5084664;27;20043;-80
2023/04/07 00:22:23;;;;;;;64.22;37.53;;;7.10;97.70;;;;;;5118360;27;20031;-81
2023/04/07 00:24:48;;;;;;;61.13;36.17;;;7.10;97.80;;;;;;5118547;27;20035;-80
2023/04/07 00:27:14;;;;;;;62.67;36.45;;;7.10;97.80;;;;;;5118251;27;20447;-80
2023/04/07 00:29:42;;;;;;;47.97;31.98;;;7.10;97.80;;;;;;5101581;27;20047;-81
2023/04/07 00:32:08;;;;;;;55.88;34.15;;;7.10;97.60;;;;;;5118273;27;20050;-81
2023/04/07 00:34:34;;;;;;;54.13;33.67;;;7.10;97.80;;;;;;5118084;27;20099;-81
2023/04/07 00:37:00;;;;;;;61.00;36.47;;;7.20;97.80;;;;;;5100967;27;20215;-80
2023/04/07 00:39:26;;;;;;;63.95;38.33;;;7.10;97.80;;;;;;5084035;27;20130;-82
2023/04/07 00:41:52;;;;;;;72.72;40.30;;;7.10;97.90;;;;;;5101312;27;20064;-80
2023/04/07 00:44:18;;;;;;;82.05;40.10;;;7.20;97.80;;;;;;5084337;27;20031;-81
2023/04/07 00:46:46;;;;;;;71.47;39.65;;;7.10;97.80;;;;;;5118324;27;20141;-81
2023/04/07 00:49:12;;;;;;;51.53;33.65;;;7.20;97.90;;;;;;5084536;27;20039;-81
2023/04/07 00:51:38;;;;;;;67.45;36.20;;;7.20;98.00;;;;;;5084587;27;20246;-81
2023/04/07 00:54:04;;;;;;;67.20;37.90;;;7.10;98.10;;;;;;5101313;27;20149;-82
2023/04/07 00:56:30;;;;;;;75.32;40.25;;;7.20;98.10;;;;;;5118151;27;20543;-80
2023/04/07 00:58:56;;;;;;;79.60;42.17;;;7.10;98.20;;;;;;5139323;27;20030;-79
2023/04/07 01:01:26;;;;;;;77.65;40.78;;;7.10;98.30;;;;;;5124086;27;20095;-79
2023/04/07 01:04:07;;;;;;;84.00;40.40;;;7.20;98.30;;;;;;5137097;27;20046;-82
2023/04/07 01:06:39;;;;;;;63.38;36.47;;;7.10;98.30;;;;;;5139161;27;20099;-81
2023/04/07 01:09:24;;;;;;;60.13;35.50;;;7.20;98.30;;;;;;5139943;27;20038;-80
2023/04/07 01:12:04;;;;;;;70.75;38.72;;;7.10;98.10;;;;;;5117841;27;20037;-78
2023/04/07 01:14:37;;;;;;;83.53;41.22;;;7.20;98.20;;;;;;5117800;27;20438;-80
2023/04/07 01:17:06;;;;;;;71.25;38.78;;;7.20;98.20;;;;;;5102718;27;20475;-81
2023/04/07 01:20:07;;;;;;;66.88;38.92;;;7.20;98.20;;;;;;5100737;27;20394;-80
2023/04/07 01:22:56;;;;;;;51.00;32.63;;;7.20;98.10;;;;;;5099688;27;20039;-80
2023/04/07 01:25:58;;;;;;;72.18;40.05;;;7.20;98.10;;;;;;5117361;27;20039;-80
2023/04/07 01:29:02;;;;;;;71.53;39.35;;;7.20;98.00;;;;;;5100080;27;20031;-80
2023/04/07 01:31:29;;;;;;;68.55;38.08;;;7.20;98.10;;;;;;5100092;27;20091;-81
2023/04/07 01:33:58;;;;;;;62.42;37.45;;;7.30;98.30;;;;;;5100366;27;20092;-80
2023/04/07 01:36:27;;;;;;;76.80;40.75;;;7.20;98.10;;;;;;5116428;27;20043;-80
2023/04/07 01:38:54;;;;;;;65.53;36.90;;;7.30;98.20;;;;;;5116900;27;20039;-80
2023/04/07 01:41:20;;;;;;;69.75;37.78;;;7.30;98.20;;;;;;5083074;27;20050;-79
2023/04/07 01:43:47;;;;;;;73.72;38.97;;;7.30;98.20;;;;;;5116726;27;20039;-80
2023/04/07 01:46:14;;;;;;;99.80;43.45;;;7.20;98.30;;;;;;5117048;27;20077;-80
2023/04/07 01:48:41;;;;;;;84.65;41.92;;;7.30;98.50;;;;;;5116783;27;20460;-83
2023/04/07 01:51:10;;;;;;;84.32;41.20;;;7.20;98.50;;;;;;5099736;27;20066;-81
2023/04/07 01:53:37;;;;;;;69.13;39.28;;;7.30;98.60;;;;;;5116841;27;20047;-81
2023/04/07 01:56:03;;;;;;;76.97;39.85;;;7.30;98.50;;;;;;5099709;27;20507;-79
2023/04/07 01:58:29;;;;;;;72.40;38.88;;;7.30;98.50;;;;;;5082714;27;20498;-80
2023/04/07 02:00:55;;;;;;;70.88;37.78;;;7.30;98.70;;;;;;5099477;27;20035;-81
2023/04/07 02:03:26;;;;;;;72.38;38.05;;;7.30;98.60;;;;;;5116211;27;20154;-81
2023/04/07 02:05:56;;;;;;;56.67;35.58;;;7.30;98.50;;;;;;5116445;27;20035;-82
2023/04/07 02:08:26;;;;;;;88.28;41.03;;;7.30;98.60;;;;;;5116530;27;20376;-80
2023/04/07 02:10:53;;;;;;;73.20;38.35;;;7.30;98.70;;;;;;5116254;27;20050;-80
2023/04/07 02:13:21;;;;;;;62.78;35.30;;;7.30;98.50;;;;;;5116285;27;20161;-80
2023/04/07 02:15:49;;;;;;;100.35;43.15;;;7.40;98.60;;;;;;5099014;27;20100;-82
2023/04/07 02:18:17;;;;;;;91.30;40.30;;;7.30;98.60;;;;;;5099104;27;20039;-81
2023/04/07 02:20:45;;;;;;;95.63;40.22;;;7.30;98.60;;;;;;5115978;27;20039;-81
2023/04/07 02:23:11;;;;;;;74.53;37.85;;;7.30;98.70;;;;;;5082200;27;20039;-81
2023/04/07 02:25:37;;;;;;;53.95;32.33;;;7.40;98.80;;;;;;5115896;27;20156;-81
2023/04/07 02:28:05;;;;;;;58.05;30.38;;;7.40;98.70;;;;;;5115890;27;20134;-82
2023/04/07 02:30:31;;;;;;;50.20;27.38;;;7.40;98.60;;;;;;5099228;27;20050;-82
2023/04/07 02:32:56;;;;;;;59.13;30.48;;;7.40;98.70;;;;;;5082159;27;20413;-79
2023/04/07 02:35:22;;;;;;;46.80;26.75;;;7.50;98.70;;;;;;5065351;27;20039;-81
2023/04/07 02:37:48;;;;;;;50.88;26.85;;;7.50;98.60;;;;;;5081892;27;20516;-81
2023/04/07 02:40:15;;;;;;;44.35;24.77;;;7.50;98.60;;;;;;5081974;27;20031;-82
2023/04/07 02:42:41;;;;;;;72.47;31.75;;;7.50;98.50;;;;;;5115777;27;20578;-80
2023/04/07 02:45:08;;;;;;;60.15;29.85;;;7.60;98.70;;;;;;5115918;27;20122;-81
2023/04/07 02:47:35;;;;;;;53.60;29.63;;;7.60;98.60;;;;;;5115859;27;20043;-82
2023/04/07 02:50:00;;;;;;;47.58;29.42;;;7.60;98.60;;;;;;5098622;27;20174;-81
2023/04/07 02:52:26;;;;;;;81.07;37.40;;;7.60;98.60;;;;;;5115678;27;20061;-81
2023/04/07 02:54:52;;;;;;;81.10;37.00;;;7.60;98.60;;;;;;5115471;27;20500;-79
2023/04/07 02:57:18;;;;;;;71.60;33.03;;;7.60;98.70;;;;;;5098719;27;20050;-81
2023/04/07 02:59:44;;;;;;;52.65;27.25;;;7.60;98.80;;;;;;5115180;27;20043;-81
2023/04/07 03:02:10;;;;;;;55.42;26.20;;;7.60;98.70;;;;;;5115394;27;20059;-81
2023/04/07 03:04:35;;;;;;;60.65;27.38;;;7.60;98.70;;;;;;5098431;27;20039;-82
2023/04/07 03:07:01;;;;;;;76.70;28.80;;;7.60;98.80;;;;;;5115253;28;20047;-81
2023/04/07 03:09:27;;;;;;;35.75;18.88;;;7.60;98.80;;;;;;5081406;27;20133;-80
2023/04/07 03:11:53;;;;;;;46.08;22.42;;;7.60;98.70;;;;;;5115168;27;20039;-81
2023/04/07 03:14:19;;;;;;;45.15;19.60;;;7.70;98.70;;;;;;5115318;28;20047;-81
2023/04/07 03:16:45;;;;;;;46.67;20.15;;;7.60;98.70;;;;;;5098188;28;20039;-81
2023/04/07 03:19:11;;;;;;;49.50;19.65;;;7.70;98.70;;;;;;5098176;28;20039;-81
2023/04/07 03:21:37;;;;;;;53.47;19.88;;;7.70;98.70;;;;;;5098615;28;20414;-80
2023/04/07 03:24:04;;;;;;;57.65;19.17;;;7.70;98.70;;;;;;5115506;28;20457;-82
2023/04/07 03:26:30;;;;;;;45.58;18.73;;;7.70;98.60;;;;;;5098551;28;20440;-80
2023/04/07 03:28:56;;;;;;;69.32;29.00;;;7.80;98.60;;;;;;5118213;27;20047;-80
2023/04/07 03:31:22;;;;;;;76.45;34.20;;;7.80;98.50;;;;;;5102334;27;20050;-79
2023/04/07 03:33:49;;;;;;;70.22;33.67;;;7.70;98.50;;;;;;5102334;27;20043;-79
2023/04/07 03:36:16;;;;;;;74.20;36.08;;;7.70;98.40;;;;;;5102221;27;20046;-77
2023/04/07 03:38:41;;;;;;;75.93;33.88;;;7.70;98.50;;;;;;5102038;27;20525;-80
2023/04/07 03:41:07;;;;;;;61.30;31.20;;;7.70;98.40;;;;;;5119496;27;20039;-80
2023/04/07 03:43:33;;;;;;;87.50;39.22;;;7.70;98.40;;;;;;5102037;27;20504;-79
2023/04/07 03:45:59;;;;;;;63.88;31.30;;;7.70;98.40;;;;;;5119147;27;20042;-80
2023/04/07 03:48:24;;;;;;;66.63;30.35;;;7.70;98.40;;;;;;5102004;27;20402;-80
2023/04/07 03:50:50;;;;;;;50.78;25.27;;;7.70;98.30;;;;;;5102178;27;20039;-80
2023/04/07 03:53:18;;;;;;;78.75;29.70;;;7.70;98.40;;;;;;5119087;27;20043;-79
2023/04/07 03:55:44;;;;;;;58.83;25.67;;;7.70;98.30;;;;;;5085384;27;20190;-80
2023/04/07 03:58:09;;;;;;;69.82;30.60;;;7.70;98.30;;;;;;5119028;27;20151;-78
2023/04/07 04:00:35;;;;;;;78.80;34.45;;;7.70;98.30;;;;;;5101839;27;20469;-79
2023/04/07 04:03:01;;;;;;;61.22;32.28;;;7.70;98.30;;;;;;5101589;27;20051;-80
2023/04/07 04:05:27;;;;;;;53.95;29.88;;;7.70;98.30;;;;;;5118625;27;20491;-80
2023/04/07 04:07:53;;;;;;;71.10;35.05;;;7.70;98.20;;;;;;5101775;27;20042;-81
2023/04/07 04:10:19;;;;;;;63.38;31.92;;;7.70;98.10;;;;;;5118759;27;20118;-80
2023/04/07 04:12:47;;;;;;;83.57;36.20;;;7.70;98.20;;;;;;5101609;27;20035;-79
2023/04/07 04:15:13;;;;;;;64.38;34.20;;;7.70;98.20;;;;;;5101723;27;20465;-79
2023/04/07 04:17:39;;;;;;;71.72;36.33;;;7.70;98.00;;;;;;5084553;27;20074;-79
2023/04/07 04:20:05;;;;;;;55.00;31.00;;;7.60;98.10;;;;;;5101266;27;20383;-80
2023/04/07 04:22:31;;;;;;;62.38;33.92;;;7.60;98.10;;;;;;5084421;27;20035;-80
2023/04/07 04:24:58;;;;;;;65.72;33.92;;;7.60;98.10;;;;;;5118354;27;20093;-79
2023/04/07 04:27:24;;;;;;;58.70;32.92;;;7.60;98.10;;;;;;5118203;27;20096;-81
2023/04/07 04:29:50;;;;;;;59.22;32.00;;;7.60;98.10;;;;;;5118541;27;20043;-80
2023/04/07 04:32:16;;;;;;;63.75;34.13;;;7.50;98.00;;;;;;5101515;27;20046;-81
2023/04/07 04:34:42;;;;;;;60.00;32.30;;;7.60;98.20;;;;;;5101095;27;20043;-80
2023/04/07 04:37:08;;;;;;;85.30;39.17;;;7.50;98.10;;;;;;5101021;27;20068;-81
2023/04/07 04:39:35;;;;;;;70.88;32.88;;;7.60;98.20;;;;;;5083968;27;20035;-80
2023/04/07 04:42:02;;;;;;;64.30;32.03;;;7.60;98.20;;;;;;5101069;27;20058;-79
2023/04/07 04:44:29;;;;;;;69.63;34.45;;;7.50;98.20;;;;;;5101478;27;20085;-81
2023/04/07 04:46:54;;;;;;;58.20;31.67;;;7.50;98.20;;;;;;5118130;27;20034;-81
2023/04/07 04:49:20;;;;;;;69.03;33.38;;;7.50;98.20;;;;;;5084315;27;20035;-81
2023/04/07 04:51:46;;;;;;;79.20;37.38;;;7.60;98.20;;;;;;5100834;27;20491;-81
2023/04/07 04:54:12;;;;;;;76.72;33.88;;;7.50;98.30;;;;;;5117732;27;20039;-80
2023/04/07 04:56:38;;;;;;;55.67;31.48;;;7.50;98.20;;;;;;5117631;27;20355;-80
2023/04/07 04:59:04;;;;;;;74.35;34.65;;;7.50;98.30;;;;;;5083886;27;20035;-81
2023/04/07 05:01:30;;;;;;;62.47;32.28;;;7.60;98.30;;;;;;5117391;27;20085;-81
2023/04/07 05:03:57;;;;;;;76.93;35.50;;;7.60;98.30;;;;;;5101032;27;20051;-81
2023/04/07 05:06:23;;;;;;;84.28;39.13;;;7.50;98.40;;;;;;5100055;27;20043;-80
2023/04/07 05:08:48;;;;;;;82.50;35.97;;;7.50;98.40;;;;;;5067117;27;20035;-81
2023/04/07 05:11:15;;;;;;;70.15;34.22;;;7.60;98.40;;;;;;5117420;27;20039;-81
2023/04/07 05:13:41;;;;;;;65.40;34.22;;;7.50;98.40;;;;;;5100346;27;20130;-81
2023/04/07 05:16:07;;;;;;;69.45;34.10;;;7.50;98.40;;;;;;5066491;27;20134;-82
2023/04/07 05:18:32;;;;;;;53.78;31.85;;;7.50;98.40;;;;;;5113196;27;20539;-82
2023/04/07 05:20:58;;;;;;;71.05;35.30;;;7.50;98.40;;;;;;5091025;27;20141;-80
2023/04/07 05:23:24;;;;;;;56.10;33.47;;;7.50;98.30;;;;;;5110312;27;20039;-80
2023/04/07 05:25:50;;;;;;;75.80;37.83;;;7.50;98.30;;;;;;5093049;27;20497;-80
2023/04/07 05:28:16;;;;;;;62.35;33.15;;;7.50;98.40;;;;;;5093485;27;20042;-80
2023/04/07 05:30:42;;;;;;;67.75;35.70;;;7.50;98.30;;;;;;5093227;27;20043;-79
2023/04/07 05:33:07;;;;;;;67.97;34.75;;;7.50;98.20;;;;;;5093397;27;20100;-80
2023/04/07 05:35:33;;;;;;;54.30;31.15;;;7.50;98.40;;;;;;5110085;27;20050;-82
2023/04/07 05:37:59;;;;;;;54.03;31.77;;;7.50;98.40;;;;;;5128290;27;20062;-82
2023/04/07 05:40:24;;;;;;;58.42;31.92;;;7.50;98.40;;;;;;5108658;27;20478;-80
2023/04/07 05:42:50;;;;;;;56.75;31.90;;;7.50;98.50;;;;;;5093176;27;20066;-79
2023/04/07 05:45:16;;;;;;;76.13;35.38;;;7.50;98.40;;;;;;5092531;27;20050;-81
2023/04/07 05:47:41;;;;;;;65.60;34.20;;;7.50;98.40;;;;;;5075925;27;20134;-81
2023/04/07 05:50:08;;;;;;;73.88;36.60;;;7.50;98.40;;;;;;5108318;27;20081;-80
2023/04/07 05:52:33;;;;;;;66.82;33.63;;;7.50;98.40;;;;;;5108765;27;20585;-80
2023/04/07 05:54:59;;;;;;;67.65;33.92;;;7.50;98.30;;;;;;5092525;27;20145;-79
2023/04/07 05:57:26;;;;;;;69.03;34.63;;;7.50;98.30;;;;;;5109316;27;20071;-81
2023/04/07 05:59:52;;;;;;;65.22;34.25;;;7.50;98.30;;;;;;5091567;27;20096;-81
2023/04/07 06:02:18;;;;;;;55.97;31.73;;;7.50;98.50;;;;;;5108672;27;20055;-79
2023/04/07 06:04:44;;;;;;;55.00;30.17;;;7.50;98.30;;;;;;5075072;27;20129;-80
2023/04/07 06:07:10;;;;;;;66.70;32.90;;;7.50;98.40;;;;;;5058717;27;20047;-82
2023/04/07 06:09:35;;;;;;;50.83;30.08;;;7.60;98.40;;;;;;5107922;27;20043;-82
2023/04/07 06:12:03;;;;;;;45.97;26.88;;;7.60;98.40;;;;;;5092263;27;20202;-79
2023/04/07 06:14:29;;;;;;;48.50;29.05;;;7.60;98.30;;;;;;5059693;27;20154;-83
2023/04/07 06:16:55;;;;;;;45.92;26.83;;;7.60;98.50;;;;;;5092493;27;20130;-81
2023/04/07 06:19:21;;;;;;;38.00;22.88;;;7.60;98.00;;;;;;5089993;27;20044;-80
2023/04/07 06:21:47;;;;;;;41.58;25.42;;;7.70;97.80;;;;;;5068024;27;20035;-81
2023/04/07 06:24:12;;;;;;;30.05;19.52;;;7.70;97.70;;;;;;5059480;27;20050;-79
2023/04/07 06:26:40;;;;;;;34.60;21.42;;;7.70;97.60;;;;;;5095093;27;20423;-80
2023/04/07 06:29:06;;;;;;;34.45;22.83;;;7.70;97.50;;;;;;5106899;27;20060;-81
2023/04/07 06:31:31;;;;;;;40.80;22.90;;;7.70;97.50;;;;;;5115891;27;20038;-80
2023/04/07 06:33:57;;;;;;;30.25;20.15;;;7.70;97.60;;;;;;5115117;27;20042;-78
2023/04/07 06:36:23;;;;;;;29.52;20.60;;;7.70;97.60;;;;;;5076618;27;20039;-81
2023/04/07 06:38:49;;;;;;;28.60;20.27;;;7.70;97.50;;;;;;5109668;27;20050;-80
2023/04/07 06:41:15;;;;;;;31.25;20.70;;;7.70;97.40;;;;;;5124732;27;20063;-80
2023/04/07 06:43:43;;;;;;;29.75;21.17;;;7.80;97.40;;;;;;5104740;27;20527;-81
2023/04/07 06:46:08;;;;;;;30.05;20.77;;;7.70;97.40;;;;;;5115883;27;20498;-81
2023/04/07 06:48:34;;;;;;;37.47;22.25;;;7.70;97.50;;;;;;5099082;27;20042;-80
2023/04/07 06:51:00;;;;;;;32.17;21.92;;;7.70;97.60;;;;;;5099014;27;20099;-81
2023/04/07 06:53:25;;;;;;;33.72;22.13;;;7.70;97.70;;;;;;5099142;27;20047;-81
2023/04/07 06:56:01;;;;;;;32.92;21.02;;;7.70;97.80;;;;;;5082527;27;20043;-81
2023/04/07 06:58:26;;;;;;;31.38;21.88;;;7.70;97.90;;;;;;5100140;27;20046;-81
2023/04/07 07:00:52;;;;;;;35.55;22.30;;;7.70;98.10;;;;;;5099205;27;20043;-80
2023/04/07 07:03:18;;;;;;;28.13;19.80;;;7.60;97.90;;;;;;5081923;27;20107;-79
2023/04/07 07:05:44;;;;;;;31.15;20.83;;;7.70;97.90;;;;;;5082420;27;20176;-80
2023/04/07 07:08:10;;;;;;;29.85;20.17;;;7.70;98.00;;;;;;5116020;27;20411;-81
2023/04/07 07:10:35;;;;;;;31.95;21.30;;;7.70;98.00;;;;;;5098421;27;20031;-81
2023/04/07 07:13:01;;;;;;;32.17;21.30;;;7.70;97.80;;;;;;5098452;27;20043;-81
2023/04/07 07:15:26;;;;;;;26.17;18.20;;;7.70;98.00;;;;;;5097914;27;20138;-81
2023/04/07 07:17:52;;;;;;;26.45;20.10;;;7.70;98.00;;;;;;5115267;28;20039;-82
2023/04/07 07:20:18;;;;;;;26.88;19.45;;;7.80;98.10;;;;;;5064829;28;20101;-80
2023/04/07 07:22:44;;;;;;;23.65;17.98;;;7.80;98.00;;;;;;5081195;28;20039;-81
2023/04/07 07:25:10;;;;;;;33.60;22.67;;;7.80;98.00;;;;;;5097690;28;20035;-80
2023/04/07 07:27:35;;;;;;;26.65;19.73;;;7.90;98.00;;;;;;5098315;28;20049;-81
2023/04/07 07:30:01;;;;;;;28.90;19.75;;;7.90;97.90;;;;;;5115331;28;20043;-82
2023/04/07 07:32:27;;;;;;;26.38;19.45;;;7.90;97.90;;;;;;5098240;28;20039;-82
2023/04/07 07:34:53;;;;;;;23.15;17.85;;;7.90;97.90;;;;;;5098272;28;20095;-80
2023/04/07 07:37:18;;;;;;;24.77;19.98;;;7.90;97.90;;;;;;5098137;28;20053;-81
2023/04/07 07:39:44;;;;;;;23.88;18.83;;;8.00;98.00;;;;;;5097960;28;20046;-81
2023/04/07 07:42:10;;;;;;;26.73;19.80;;;8.00;98.10;;;;;;5081281;28;20035;-81
2023/04/07 07:44:35;;;;;;;27.73;19.65;;;8.00;98.00;;;;;;5064502;28;20122;-83
2023/04/07 07:47:01;;;;;;;24.45;19.45;;;8.00;98.00;;;;;;5081460;28;20039;-80
2023/04/07 07:49:27;;;;;;;24.30;18.42;;;8.00;98.00;;;;;;5097983;28;20042;-82
2023/04/07 07:51:52;;;;;;;25.15;17.23;;;8.00;98.00;;;;;;5098182;28;20046;-82
2023/04/07 07:54:18;;;;;;;23.33;18.17;;;8.10;98.00;;;;;;5098021;28;20047;-80
2023/04/07 07:56:44;;;;;;;23.80;18.17;;;8.10;98.00;;;;;;5064476;28;20071;-80
2023/04/07 07:59:10;;;;;;;23.85;18.38;;;8.10;97.90;;;;;;5097663;28;20045;-80
2023/04/07 08:01:35;;;;;;;21.42;16.63;;;8.10;97.90;;;;;;5097723;28;20051;-81
2023/04/07 08:04:01;;;;;;;20.02;15.85;;;8.10;97.80;;;;;;5097867;28;20046;-80
2023/04/07 08:06:28;;;;;;;20.88;16.85;;;8.10;97.80;;;;;;5081049;28;20043;-80
2023/04/07 08:08:53;;;;;;;21.90;16.92;;;8.10;97.70;;;;;;5098328;28;20040;-81
2023/04/07 08:11:20;;;;;;;21.77;15.93;;;8.10;97.60;;;;;;5064356;28;20042;-81
2023/04/07 08:13:46;;;;;;;21.25;15.80;;;8.10;97.60;;;;;;5081928;27;20047;-81
2023/04/07 08:16:11;;;;;;;21.75;16.40;;;8.20;97.40;;;;;;5101601;27;20047;-80
2023/04/07 08:18:37;;;;;;;23.63;18.13;;;8.10;97.40;;;;;;5067970;27;20046;-81
2023/04/07 08:21:04;;;;;;;24.40;16.88;;;8.10;97.40;;;;;;5118530;27;20031;-81
2023/04/07 08:23:30;;;;;;;20.77;15.65;;;8.10;97.40;;;;;;5101872;27;20039;-78
2023/04/07 08:25:59;;;;;;;20.75;17.08;;;8.10;97.40;;;;;;5118707;27;20060;-81
2023/04/07 08:28:25;;;;;;;22.83;17.02;;;8.20;97.40;;;;;;5101292;27;20058;-82
2023/04/07 08:30:51;;;;;;;18.98;14.82;;;8.20;97.30;;;;;;5118401;27;20043;-82
2023/04/07 08:33:17;;;;;;;20.80;16.83;;;8.20;97.30;;;;;;5101589;27;20154;-80
2023/04/07 08:35:43;;;;;;;19.02;15.50;;;8.20;97.20;;;;;;5101355;27;20068;-82
2023/04/07 08:38:08;;;;;;;20.92;16.15;;;8.20;97.20;;;;;;5118077;27;20103;-83
2023/04/07 08:40:34;;;;;;;21.00;16.23;;;8.20;97.20;;;;;;5084404;27;20035;-83
2023/04/07 08:43:07;;;;;;;21.17;16.60;;;8.20;97.10;;;;;;5084401;27;20039;-81
2023/04/07 08:45:33;;;;;;;20.63;16.90;;;8.30;97.00;;;;;;5101165;27;20122;-81
2023/04/07 08:48:03;;;;;;;21.33;16.65;;;8.30;97.00;;;;;;5118252;27;20134;-81
2023/04/07 08:50:31;;;;;;;20.63;17.20;;;8.30;96.80;;;;;;5101101;27;20043;-80
2023/04/07 08:53:03;;;;;;;20.63;15.80;;;8.30;96.80;;;;;;5100944;27;20536;-81
2023/04/07 08:55:28;;;;;;;21.83;17.08;;;8.30;96.70;;;;;;5100701;27;20035;-81
2023/04/07 08:57:55;;;;;;;21.33;17.80;;;8.30;96.70;;;;;;5101055;27;20058;-82
2023/04/07 09:00:21;;;;;;;22.25;17.20;;;8.40;96.70;;;;;;5101012;27;20068;-81
2023/04/07 09:02:48;;;;;;;21.60;17.00;;;8.40;96.70;;;;;;5100563;27;20043;-82
2023/04/07 09:05:14;;;;;;;22.38;17.60;;;8.30;96.70;;;;;;5067353;27;20065;-81
2023/04/07 09:07:40;;;;;;;21.65;16.77;;;8.30;96.70;;;;;;5100617;27;20054;-82
2023/04/07 09:10:06;;;;;;;21.73;16.98;;;8.40;96.90;;;;;;5100702;27;20043;-82
2023/04/07 09:12:33;;;;;;;21.77;18.67;;;8.50;96.90;;;;;;5100499;27;20050;-82
2023/04/07 09:14:59;;;;;;;22.80;17.73;;;8.50;96.90;;;;;;5100518;27;20046;-82
2023/04/07 09:17:26;;;;;;;22.70;18.60;;;8.60;96.80;;;;;;5100289;27;20079;-83
2023/04/07 09:19:56;;;;;;;24.60;20.17;;;8.60;97.00;;;;;;5117374;27;20475;-83
2023/04/07 09:22:41;;;;;;;22.23;17.17;;;8.70;96.90;;;;;;5117330;27;20087;-81
2023/04/07 09:25:22;;;;;;;23.88;18.88;;;8.70;96.70;;;;;;5099759;28;20095;-82
2023/04/07 09:28:02;;;;;;;26.40;21.15;;;8.80;96.60;;;;;;5100746;27;20501;-81
2023/04/07 09:30:30;;;;;;;24.40;19.85;;;8.80;96.50;;;;;;5117282;27;20043;-83
2023/04/07 09:32:57;;;;;;;22.67;17.60;;;8.90;96.50;;;;;;5100278;27;20039;-82
2023/04/07 09:35:23;;;;;;;25.90;20.42;;;9.00;96.40;;;;;;5100511;27;20062;-82
2023/04/07 09:38:06;;;;;;;22.42;18.67;;;9.00;96.20;;;;;;5099868;27;20051;-81
2023/04/07 09:40:33;;;;;;;24.35;19.10;;;9.00;96.10;;;;;;5117082;27;20042;-83
2023/04/07 09:42:59;;;;;;;23.63;19.23;;;9.00;96.10;;;;;;5116944;27;20092;-82
2023/04/07 09:45:26;;;;;;;33.42;26.35;;;9.10;96.00;;;;;;5116849;27;20125;-83
2023/04/07 09:47:52;;;;;;;23.52;19.90;;;9.10;95.80;;;;;;5100059;27;20039;-81
2023/04/07 09:50:31;;;;;;;21.17;16.88;;;9.10;95.70;;;;;;5066343;27;20039;-82
2023/04/07 09:52:57;;;;;;;21.70;17.77;;;9.20;95.80;;;;;;5117031;27;20039;-81
2023/04/07 09:55:23;;;;;;;22.52;18.33;;;9.30;95.70;;;;;;5082847;27;20674;-82
2023/04/07 09:57:50;;;;;;;20.50;17.02;;;9.40;95.60;;;;;;5099777;27;20039;-78
2023/04/07 10:00:16;;;;;;;18.63;16.63;;;9.30;95.40;;;;;;5099460;27;20031;-82
2023/04/07 10:02:42;;;;;;;19.25;15.82;;;9.40;95.30;;;;;;5099571;27;20047;-81
2023/04/07 10:05:09;;;;;;;17.75;15.73;;;9.40;94.30;;;;;;5082763;27;20092;-80
2023/04/07 10:07:36;;;;;;;16.35;13.93;;;9.50;94.50;;;;;;5099602;27;20095;-80
2023/04/07 10:10:07;;;;;;;16.70;14.52;;;9.40;94.30;;;;;;5099580;27;20420;-81
2023/04/07 10:12:35;;;;;;;18.30;14.13;;;9.50;94.50;;;;;;5082800;27;20479;-81
2023/04/07 10:15:01;;;;;;;15.70;14.02;;;9.50;94.20;;;;;;5099958;27;20057;-80
2023/04/07 10:17:28;;;;;;;14.60;12.27;;;9.60;94.50;;;;;;5099542;27;20494;-81
2023/04/07 10:19:58;;;;;;;15.00;12.65;;;9.60;94.20;;;;;;5099339;27;20130;-81
2023/04/07 10:22:25;;;;;;;14.57;13.05;;;9.70;93.90;;;;;;5099401;27;20118;-79
2023/04/07 10:24:59;;;;;;;14.25;12.20;;;9.70;92.80;;;;;;5099321;27;20364;-80
2023/04/07 10:27:58;;;;;;;14.75;13.02;;;9.70;92.30;;;;;;5116278;27;20086;-81
2023/04/07 10:30:34;;;;;;;12.35;11.02;;;9.70;92.90;;;;;;5115837;27;20053;-80
2023/04/07 10:33:00;;;;;;;13.50;12.15;;;9.80;93.00;;;;;;5099355;27;20390;-79
2023/04/07 10:35:25;;;;;;;13.05;11.65;;;9.80;93.20;;;;;;5099122;27;20042;-82
2023/04/07 10:38:06;;;;;;;14.80;12.65;;;9.90;92.90;;;;;;5081945;27;20483;-81
2023/04/07 10:40:34;;;;;;;11.73;10.52;;;9.90;93.00;;;;;;5116121;27;20031;-80
2023/04/07 10:43:00;;;;;;;12.23;10.90;;;9.80;91.80;;;;;;5082076;27;20475;-80
2023/04/07 10:45:47;;;;;;;11.95;10.75;;;9.80;91.40;;;;;;5098775;27;20043;-80
2023/04/07 10:48:14;;;;;;;11.52;10.32;;;9.90;92.20;;;;;;5115917;27;20046;-83
2023/04/07 10:50:41;;;;;;;11.80;10.40;;;10.00;91.30;;;;;;5082038;27;20081;-81
2023/04/07 10:53:09;;;;;;;11.77;10.57;;;10.00;91.90;;;;;;5098714;27;20035;-79
2023/04/07 10:55:44;;;;;;;10.85;9.20;;;10.10;91.50;;;;;;5115702;27;20306;-82
2023/04/07 10:58:23;;;;;;;11.93;10.45;;;10.10;91.30;;;;;;5098837;27;20442;-82
2023/04/07 11:01:17;;;;;;;11.35;10.25;;;10.20;91.20;;;;;;5098823;28;20390;-80
2023/04/07 11:03:54;;;;;;;12.63;10.63;;;10.30;90.80;;;;;;5098946;27;20472;-81
2023/04/07 11:06:20;;;;;;;12.20;10.52;;;10.30;90.60;;;;;;5098781;27;20473;-81
2023/04/07 11:08:47;;;;;;;12.40;10.00;;;10.30;89.00;;;;;;5098350;28;20127;-81
2023/04/07 11:11:37;;;;;;;13.88;10.95;;;10.30;89.70;;;;;;5081690;27;20065;-83
2023/04/07 11:14:03;;;;;;;12.27;10.55;;;10.40;90.10;;;;;;5115394;27;20043;-82
2023/04/07 11:16:37;;;;;;;13.10;9.98;;;10.40;90.20;;;;;;5098583;28;20047;-82
2023/04/07 11:19:03;;;;;;;13.05;10.35;;;10.50;90.00;;;;;;5098217;28;20039;-82
2023/04/07 11:21:29;;;;;;;11.35;9.70;;;10.50;88.80;;;;;;5081828;28;20046;-82
2023/04/07 11:23:55;;;;;;;11.50;10.15;;;10.50;88.60;;;;;;5098458;28;20448;-81
2023/04/07 11:26:21;;;;;;;12.02;10.73;;;10.50;89.10;;;;;;5081775;28;20047;-83
2023/04/07 11:28:54;;;;;;;10.70;9.20;;;10.60;88.30;;;;;;5081786;28;20092;-82
2023/04/07 11:31:25;;;;;;;10.85;9.75;;;10.70;88.60;;;;;;5115164;28;20043;-82
2023/04/07 11:33:57;;;;;;;10.45;9.35;;;10.70;87.60;;;;;;5098230;28;20047;-83
2023/04/07 11:36:31;;;;;;;10.35;8.52;;;10.80;88.50;;;;;;5098024;28;20047;-82
2023/04/07 11:38:57;;;;;;;10.57;8.88;;;10.90;88.20;;;;;;5098145;28;20039;-84
2023/04/07 11:41:25;;;;;;;9.25;7.93;;;10.80;85.50;;;;;;5098297;28;20035;-83
2023/04/07 11:44:09;;;;;;;10.05;7.85;;;10.80;87.00;;;;;;5081938;28;20088;-84
2023/04/07 11:46:36;;;;;;;9.38;8.05;;;11.00;87.10;;;;;;5115133;28;20042;-82
2023/04/07 11:49:12;;;;;;;8.70;7.80;;;10.80;85.40;;;;;;5099566;27;20402;-83
2023/04/07 11:51:40;;;;;;;8.75;7.50;;;10.80;86.30;;;;;;5102317;27;20057;-83
2023/04/07 11:54:05;;;;;;;6.65;5.55;;;10.80;86.10;;;;;;5119517;27;20391;-82
2023/04/07 11:56:42;;;;;;;9.63;6.80;;;10.90;86.60;;;;;;5085490;27;20036;-81
2023/04/07 11:59:08;;;;;;;8.50;6.15;;;10.90;86.00;;;;;;5102260;27;20035;-81
2023/04/07 12:01:43;;;;;;;8.38;6.50;;;10.90;86.40;;;;;;5084893;27;20055;-83
2023/04/07 12:04:13;;;;;;;8.23;7.20;;;11.00;86.00;;;;;;5086237;27;20455;-82
2023/04/07 12:06:40;;;;;;;8.73;6.32;;;10.90;84.90;;;;;;5119007;27;20514;-83
2023/04/07 12:09:06;;;;;;;8.15;6.57;;;11.00;86.00;;;;;;5069208;27;20039;-80
2023/04/07 12:11:34;;;;;;;6.57;5.93;;;11.10;86.50;;;;;;5101704;27;20080;-82
2023/04/07 12:14:03;;;;;;;6.82;5.57;;;11.20;86.20;;;;;;5101916;27;20071;-82
2023/04/07 12:16:29;;;;;;;6.70;5.82;;;11.30;85.80;;;;;;5085047;27;20235;-83
2023/04/07 12:18:56;;;;;;;6.22;5.63;;;11.30;85.30;;;;;;5101719;27;20507;-83
2023/04/07 12:21:24;;;;;;;7.15;5.68;;;11.20;83.00;;;;;;5118798;27;20035;-82
2023/04/07 12:23:50;;;;;;;6.80;5.20;;;11.10;82.70;;;;;;5101579;27;20035;-83
2023/04/07 12:26:16;;;;;;;6.95;5.50;;;11.00;82.30;;;;;;5101518;27;20080;-81
2023/04/07 12:28:42;;;;;;;7.60;6.00;;;11.00;83.40;;;;;;5118583;27;20394;-82
2023/04/07 12:31:09;;;;;;;7.55;5.50;;;11.10;84.20;;;;;;5101736;27;20053;-81
2023/04/07 12:33:34;;;;;;;7.22;6.45;;;11.20;84.40;;;;;;5101326;27;20047;-83
2023/04/07 12:36:00;;;;;;;7.93;6.45;;;11.10;83.50;;;;;;5101113;27;20069;-82
2023/04/07 12:38:27;;;;;;;8.13;7.00;;;11.10;84.30;;;;;;5101070;27;20035;-83
2023/04/07 12:40:53;;;;;;;8.52;7.55;;;11.10;84.20;;;;;;5118360;27;20047;-82